createdAt,value
2019-03-22T00:00:51.732Z,60.43
2019-03-22T00:03:22.100Z,54.90
2019-03-22T00:05:52.387Z,53.40
2019-03-22T00:08:22.803Z,57.27
2019-03-22T00:10:53.019Z,70.73
2019-03-22T00:13:23.306Z,61.83
2019-03-22T00:15:53.694Z,64.63
2019-03-22T00:18:23.958Z,60.63
2019-03-22T00:20:54.294Z,65.00
2019-03-22T00:23:24.936Z,58.23
2019-03-22T00:25:55.234Z,62.70
2019-03-22T00:28:25.506Z,61.20
2019-03-22T00:30:59.994Z,67.20
2019-03-22T00:33:30.250Z,62.73
2019-03-22T00:36:00.535Z,62.10
2019-03-22T00:38:30.853Z,68.10
2019-03-22T00:41:05.809Z,68.37
2019-03-22T00:43:36.231Z,64.10
2019-03-22T00:46:06.536Z,68.00
2019-03-22T00:48:36.800Z,69.20
2019-03-22T00:51:07.125Z,55.93
2019-03-22T00:53:37.550Z,55.53
2019-03-22T00:56:11.451Z,61.60
2019-03-22T00:58:41.695Z,67.60
2019-03-22T01:01:12.378Z,68.97
2019-03-22T01:03:42.755Z,63.13
2019-03-22T01:06:13.020Z,60.83
2019-03-22T01:08:43.274Z,56.33
2019-03-22T01:11:26.023Z,59.67
2019-03-22T01:13:56.219Z,59.10
2019-03-22T01:16:26.378Z,57.10
2019-03-22T01:19:01.619Z,54.53
2019-03-22T01:21:31.794Z,55.93
2019-03-22T01:24:01.975Z,58.70
2019-03-22T01:26:40.279Z,55.43
2019-03-22T01:29:10.469Z,54.77
2019-03-22T01:31:40.631Z,61.67
2019-03-22T01:34:15.690Z,56.20
2019-03-22T01:36:45.931Z,62.67
2019-03-22T01:39:16.120Z,60.67
2019-03-22T01:41:46.450Z,55.90
2019-03-22T01:44:24.278Z,62.17
2019-03-22T01:46:54.530Z,59.10
2019-03-22T01:49:24.709Z,55.80
2019-03-22T01:51:54.925Z,64.07
2019-03-22T01:54:25.447Z,58.37
2019-03-22T01:56:58.123Z,55.77
2019-03-22T01:59:28.317Z,46.53
2019-03-22T02:01:58.631Z,54.37
2019-03-22T02:04:28.842Z,53.67
2019-03-22T02:06:59.064Z,53.63
2019-03-22T02:09:29.318Z,59.33
2019-03-22T02:12:02.019Z,59.67
2019-03-22T02:14:32.235Z,58.40
2019-03-22T02:17:02.519Z,59.80
2019-03-22T02:19:32.694Z,58.50
2019-03-22T02:22:02.939Z,57.60
2019-03-22T02:24:33.182Z,51.87
2019-03-22T02:27:03.806Z,57.23
2019-03-22T02:29:33.988Z,56.97
2019-03-22T02:32:04.343Z,59.47
2019-03-22T02:34:38.208Z,54.33
2019-03-22T02:37:08.503Z,59.17
2019-03-22T02:39:38.842Z,61.03
2019-03-22T02:42:14.991Z,68.93
2019-03-22T02:44:48.049Z,73.63
2019-03-22T02:47:18.356Z,64.20
2019-03-22T02:49:48.592Z,64.13
2019-03-22T02:52:18.787Z,74.40
2019-03-22T02:54:49.107Z,65.40
2019-03-22T02:57:28.255Z,70.93
2019-03-22T02:59:58.537Z,73.17
2019-03-22T03:02:28.791Z,81.20
2019-03-22T03:04:59.016Z,87.70
2019-03-22T03:07:29.300Z,86.07
2019-03-22T03:09:59.559Z,72.87
2019-03-22T03:12:32.383Z,86.43
2019-03-22T03:15:02.554Z,79.00
2019-03-22T03:17:32.747Z,73.70
2019-03-22T03:20:03.078Z,100.60
2019-03-22T03:22:33.297Z,78.03
2019-03-22T03:25:03.517Z,92.10
2019-03-22T03:27:36.216Z,78.67
2019-03-22T03:30:07.777Z,77.57
2019-03-22T03:32:37.964Z,82.93
2019-03-22T03:35:11.490Z,77.80
2019-03-22T03:37:41.681Z,76.17
2019-03-22T03:40:12.254Z,77.60
2019-03-22T03:42:42.743Z,71.17
2019-03-22T03:45:33.666Z,71.83
2019-03-22T03:48:04.987Z,74.33
2019-03-22T03:50:35.224Z,74.37
2019-03-22T03:53:06.008Z,76.07
2019-03-22T03:55:36.374Z,77.73
2019-03-22T03:58:06.856Z,69.23
2019-03-22T04:00:37.043Z,77.10
2019-03-22T04:03:07.417Z,71.13
2019-03-22T04:05:44.346Z,76.00
2019-03-22T04:08:14.648Z,72.97
2019-03-22T04:10:44.859Z,105.80
2019-03-22T04:13:15.073Z,76.70
2019-03-22T04:15:45.519Z,87.83
2019-03-22T04:18:15.754Z,82.53
2019-03-22T04:20:51.580Z,76.23
2019-03-22T04:23:21.827Z,72.40
2019-03-22T04:25:52.004Z,78.80
2019-03-22T04:28:22.252Z,94.57
2019-03-22T04:30:52.485Z,125.23
2019-03-22T04:33:22.660Z,86.03
2019-03-22T04:35:52.995Z,115.47
2019-03-22T04:38:23.195Z,86.17
2019-03-22T04:40:53.373Z,86.23
2019-03-22T04:43:23.680Z,97.20
2019-03-22T04:45:57.019Z,89.33
2019-03-22T04:48:31.261Z,88.40
2019-03-22T04:51:04.280Z,86.97
2019-03-22T04:53:47.854Z,77.33
2019-03-22T04:56:22.358Z,71.77
2019-03-22T04:58:54.638Z,70.17
2019-03-22T05:01:30.404Z,73.13
2019-03-22T05:04:00.936Z,76.80
2019-03-22T05:06:32.746Z,109.43
2019-03-22T05:09:21.165Z,65.37
2019-03-22T05:11:53.186Z,69.90
2019-03-22T05:14:24.685Z,68.77
2019-03-22T05:16:56.885Z,76.33
2019-03-22T05:19:29.891Z,67.10
2019-03-22T05:22:09.871Z,62.60
2019-03-22T05:24:42.051Z,70.20
2019-03-22T05:27:12.714Z,74.27
2019-03-22T05:29:45.263Z,85.33
2019-03-22T05:32:17.531Z,66.47
2019-03-22T05:34:47.715Z,65.43
2019-03-22T05:37:23.839Z,76.77
2019-03-22T05:39:54.030Z,89.63
2019-03-22T05:42:24.246Z,67.80
2019-03-22T05:44:54.579Z,72.37
2019-03-22T05:47:24.870Z,65.10
2019-03-22T05:49:55.051Z,67.37
2019-03-22T05:52:27.883Z,69.00
2019-03-22T05:54:58.166Z,70.27
2019-03-22T05:57:28.418Z,71.30
2019-03-22T05:59:59.139Z,72.00
2019-03-22T06:02:29.335Z,77.70
2019-03-22T06:04:59.494Z,77.80
2019-03-22T06:11:10.832Z,74.53
2019-03-22T06:13:41.238Z,83.13
2019-03-22T06:16:17.286Z,87.10
2019-03-22T06:18:50.262Z,78.43
2019-03-22T06:21:19.540Z,71.83
2019-03-22T06:23:49.994Z,74.93
2019-03-22T06:26:20.395Z,79.90
2019-03-22T06:28:50.724Z,77.77
2019-03-22T06:31:20.920Z,84.87
2019-03-22T06:33:51.201Z,85.53
2019-03-22T06:36:24.005Z,90.40
2019-03-22T06:38:56.863Z,98.23
2019-03-22T06:41:27.075Z,104.60
2019-03-22T06:43:58.838Z,99.57
2019-03-22T06:46:29.095Z,74.80
2019-03-22T06:49:01.658Z,101.93
2019-03-22T06:51:31.922Z,90.40
2019-03-22T06:54:02.133Z,96.57
2019-03-22T06:56:32.399Z,83.77
2019-03-22T06:59:07.203Z,90.90
2019-03-22T07:01:37.609Z,101.47
2019-03-22T07:04:07.887Z,80.30
2019-03-22T07:06:38.148Z,84.77
2019-03-22T07:09:13.020Z,93.17
2019-03-22T07:11:44.109Z,102.97
2019-03-22T07:14:14.292Z,98.27
2019-03-22T07:16:48.242Z,88.67
2019-03-22T07:19:18.416Z,101.10
2019-03-22T07:21:48.669Z,100.67
2019-03-22T07:24:19.291Z,109.20
2019-03-22T07:26:49.650Z,103.97
2019-03-22T07:29:19.923Z,99.57
2019-03-22T07:31:50.380Z,107.17
2019-03-22T07:34:20.637Z,105.43
2019-03-22T07:36:52.123Z,98.73
2019-03-22T07:39:27.322Z,106.67
2019-03-22T07:41:57.587Z,112.90
2019-03-22T07:44:35.111Z,111.60
2019-03-22T07:47:05.335Z,132.43
2019-03-22T07:49:35.567Z,141.77
2019-03-22T07:52:06.425Z,158.73
2019-03-22T07:54:36.618Z,126.50
2019-03-22T07:57:06.875Z,130.27
2019-03-22T07:59:37.161Z,137.73
2019-03-22T08:02:07.343Z,119.43
2019-03-22T08:04:37.630Z,118.33
2019-03-22T08:07:11.761Z,95.20
2019-03-22T08:09:42.080Z,97.50
2019-03-22T08:12:12.399Z,103.50
2019-03-22T08:14:42.803Z,103.93
2019-03-22T08:17:23.838Z,87.17
2019-03-22T08:19:54.058Z,82.03
2019-03-22T08:22:24.276Z,86.13
2019-03-22T08:24:54.498Z,81.17
2019-03-22T08:27:27.102Z,89.00
2019-03-22T08:29:57.277Z,90.20
2019-03-22T08:32:27.519Z,80.40
2019-03-22T08:34:57.919Z,83.20
2019-03-22T08:37:28.111Z,82.00
2019-03-22T08:39:58.278Z,79.97
2019-03-22T08:42:28.847Z,76.73
2019-03-22T08:44:59.049Z,78.57
2019-03-22T08:47:34.268Z,82.90
2019-03-22T08:50:01.232Z,80.07
2019-03-22T08:52:31.427Z,82.47
2019-03-22T08:55:01.666Z,88.37
2019-03-22T08:57:31.991Z,81.47
2019-03-22T09:00:03.653Z,82.00
2019-03-22T09:02:33.819Z,89.70
2019-03-22T09:05:04.199Z,81.93
2019-03-22T09:07:34.496Z,75.93
2019-03-22T09:10:17.290Z,73.30
2019-03-22T09:12:47.488Z,77.40
2019-03-22T09:15:17.766Z,80.07
2019-03-22T09:17:48.217Z,76.93
2019-03-22T09:20:27.356Z,76.10
2019-03-22T09:22:57.657Z,73.17
2019-03-22T09:25:27.850Z,76.60
2019-03-22T09:27:58.033Z,83.80
2019-03-22T09:30:28.349Z,77.37
2019-03-22T09:32:58.531Z,72.83
2019-03-22T09:35:33.843Z,78.50
2019-03-22T09:38:12.712Z,73.63
2019-03-22T09:40:35.977Z,68.90
2019-03-22T09:43:06.496Z,68.03
2019-03-22T09:45:38.030Z,62.17
2019-03-22T09:48:08.364Z,63.20
2019-03-22T09:50:38.680Z,65.93
2019-03-22T09:53:09.449Z,59.93
2019-03-22T09:55:39.718Z,60.10
2019-03-22T09:58:09.918Z,59.47
2019-03-22T10:00:40.282Z,60.70
2019-03-22T10:03:34.838Z,57.83
2019-03-22T10:06:05.172Z,63.27
2019-03-22T10:08:35.486Z,54.90
2019-03-22T10:11:05.783Z,56.10
2019-03-22T10:14:02.685Z,49.00
2019-03-22T10:16:33.043Z,44.43
2019-03-22T10:19:03.278Z,47.07
2019-03-22T10:21:33.510Z,44.93
2019-03-22T10:24:03.805Z,46.27
2019-03-22T10:26:33.992Z,42.67
2019-03-22T10:29:06.772Z,51.43
2019-03-22T10:31:37.370Z,46.70
2019-03-22T10:34:08.178Z,48.13
2019-03-22T10:36:38.472Z,40.87
2019-03-22T10:39:10.508Z,40.47
2019-03-22T10:41:40.817Z,40.77
2019-03-22T10:44:28.207Z,41.60
2019-03-22T10:46:58.466Z,41.43
2019-03-22T10:49:28.832Z,35.10
2019-03-22T10:51:59.002Z,36.03
2019-03-22T10:54:29.255Z,34.03
2019-03-22T10:56:59.541Z,37.30
2019-03-22T10:59:29.734Z,32.07
2019-03-22T11:02:03.712Z,35.83
2019-03-22T11:04:31.829Z,33.40
2019-03-22T11:07:03.509Z,30.50
2019-03-22T11:09:34.947Z,24.50
2019-03-22T11:12:12.125Z,26.53
2019-03-22T11:14:37.096Z,22.73
2019-03-22T11:17:15.162Z,22.60
2019-03-22T11:19:45.369Z,22.37
2019-03-22T11:22:15.524Z,24.50
2019-03-22T11:24:45.859Z,26.80
2019-03-22T11:27:18.478Z,26.83
2019-03-22T11:29:48.638Z,26.73
2019-03-22T11:32:18.874Z,23.83
2019-03-22T11:34:49.057Z,25.23
2019-03-22T11:37:19.353Z,19.97
2019-03-22T11:39:49.649Z,23.27
2019-03-22T11:42:20.309Z,20.23
2019-03-22T11:44:51.012Z,17.23
2019-03-22T11:47:21.501Z,20.50
2019-03-22T11:49:51.744Z,20.33
2019-03-22T11:52:21.969Z,20.10
2019-03-22T11:54:59.846Z,24.67
2019-03-22T11:57:30.059Z,20.10
2019-03-22T12:00:00.327Z,21.57
2019-03-22T12:02:30.686Z,21.67
2019-03-22T12:05:03.559Z,24.00
2019-03-22T12:07:33.706Z,19.40
2019-03-22T12:10:04.541Z,17.90
2019-03-22T12:12:34.922Z,18.70
2019-03-22T12:15:05.735Z,14.37
2019-03-22T12:17:36.066Z,12.87
2019-03-22T12:20:09.390Z,13.53
2019-03-22T12:22:39.574Z,11.43
2019-03-22T12:25:11.818Z,13.60
2019-03-22T12:27:41.992Z,11.63
2019-03-22T12:30:14.610Z,13.43
2019-03-22T12:32:48.399Z,14.20
2019-03-22T12:35:19.273Z,17.03
2019-03-22T12:37:49.486Z,10.93
2019-03-22T12:40:20.244Z,14.70
2019-03-22T12:43:11.798Z,14.03
2019-03-22T12:45:44.221Z,11.60
2019-03-22T12:48:14.395Z,14.63
2019-03-22T12:50:45.082Z,12.10
2019-03-22T12:53:15.275Z,16.57
2019-03-22T12:55:45.513Z,16.87
2019-03-22T12:58:21.650Z,15.23
2019-03-22T13:00:51.888Z,14.40
2019-03-22T13:03:24.263Z,14.90
2019-03-22T13:05:54.731Z,12.60
2019-03-22T13:08:30.756Z,12.47
2019-03-22T13:11:01.091Z,14.27
2019-03-22T13:13:31.612Z,11.60
2019-03-22T13:16:02.206Z,13.13
2019-03-22T13:18:38.830Z,23.30
2019-03-22T13:21:09.066Z,15.20
2019-03-22T13:23:39.358Z,13.57
2019-03-22T13:26:14.305Z,15.50
2019-03-22T13:28:44.667Z,13.37
2019-03-22T13:31:14.932Z,16.03
2019-03-22T13:33:45.271Z,13.30
2019-03-22T13:36:16.990Z,11.27
2019-03-22T13:38:47.217Z,18.50
2019-03-22T13:41:17.775Z,11.10
2019-03-22T13:43:48.138Z,14.53
2019-03-22T13:46:18.771Z,12.50
2019-03-22T13:48:50.459Z,18.63
2019-03-22T13:51:20.729Z,11.90
2019-03-22T13:53:50.934Z,9.93
2019-03-22T13:56:33.620Z,10.93
2019-03-22T13:59:03.910Z,15.93
2019-03-22T14:01:34.201Z,10.73
2019-03-22T14:04:04.879Z,10.50
2019-03-22T14:06:37.745Z,7.50
2019-03-22T14:09:09.525Z,6.00
2019-03-22T14:11:39.718Z,8.07
2019-03-22T14:14:10.080Z,7.10
2019-03-22T14:16:50.733Z,11.50
2019-03-22T14:19:20.967Z,8.57
2019-03-22T14:21:58.242Z,9.80
2019-03-22T14:24:28.442Z,10.67
2019-03-22T14:26:58.740Z,15.90
2019-03-22T14:29:31.979Z,11.40
2019-03-22T14:32:03.701Z,11.43
2019-03-22T14:34:33.875Z,9.20
2019-03-22T14:37:04.166Z,9.50
2019-03-22T14:39:34.799Z,9.60
2019-03-22T14:42:05.248Z,7.90
2019-03-22T14:44:36.375Z,8.23
2019-03-22T14:47:06.779Z,9.53
2019-03-22T14:49:37.225Z,6.07
2019-03-22T14:52:07.403Z,5.70
2019-03-22T14:57:48.342Z,6.50
2019-03-22T15:00:12.735Z,6.57
2019-03-22T15:02:43.494Z,10.20
2019-03-22T15:05:15.846Z,10.63
2019-03-22T15:07:46.544Z,9.10
2019-03-22T15:10:17.432Z,8.10
2019-03-22T15:12:48.547Z,8.47
2019-03-22T15:15:47.473Z,8.33
2019-03-22T15:18:32.828Z,8.90
2019-03-22T15:21:20.892Z,8.57
2019-03-22T15:24:13.950Z,12.53
2019-03-22T15:27:16.312Z,9.97
2019-03-22T15:30:00.443Z,6.80
2019-03-22T15:32:47.477Z,8.63
2019-03-22T15:35:45.354Z,8.97
2019-03-22T15:38:34.805Z,14.70
2019-03-22T15:41:05.778Z,9.17
2019-03-22T15:43:36.533Z,7.37
2019-03-22T15:46:07.742Z,9.40
2019-03-22T15:48:38.393Z,8.13
2019-03-22T15:51:09.024Z,10.40
2019-03-22T15:53:39.568Z,9.10
2019-03-22T15:56:11.005Z,7.50
2019-03-22T15:58:41.560Z,7.67
2019-03-22T16:01:12.360Z,11.30
2019-03-22T16:03:44.457Z,8.67
2019-03-22T16:06:16.194Z,9.00
2019-03-22T16:08:46.888Z,10.27
2019-03-22T16:11:17.257Z,9.90
2019-03-22T16:13:47.571Z,8.20
2019-03-22T16:16:18.831Z,11.27
2019-03-22T16:18:49.859Z,10.97
2019-03-22T16:21:22.800Z,8.47
2019-03-22T16:23:54.959Z,8.00
2019-03-22T16:26:25.255Z,7.30
2019-03-22T16:28:56.054Z,9.20
2019-03-22T16:31:28.363Z,8.97
2019-03-22T16:33:59.010Z,9.87
2019-03-22T16:36:29.608Z,9.17
2019-03-22T16:39:00.172Z,8.90
2019-03-22T16:41:30.506Z,10.33
2019-03-22T16:44:04.382Z,10.70
2019-03-22T16:46:34.828Z,10.53
2019-03-22T16:49:05.512Z,9.20
2019-03-22T16:51:35.889Z,9.00
2019-03-22T16:54:06.720Z,9.47
2019-03-22T16:56:37.681Z,11.77
2019-03-22T16:59:08.247Z,9.43
2019-03-22T17:01:39.275Z,14.17
2019-03-22T17:04:09.950Z,8.30
2019-03-22T17:06:41.976Z,8.13
2019-03-22T17:09:12.614Z,11.23
2019-03-22T17:11:43.840Z,8.40
2019-03-22T17:14:14.441Z,8.47
2019-03-22T17:16:46.249Z,9.83
2019-03-22T17:19:16.719Z,10.67
2019-03-22T17:21:47.139Z,16.80
2019-03-22T17:24:17.608Z,10.43
2019-03-22T17:26:48.677Z,9.93
2019-03-22T17:29:19.503Z,9.00
2019-03-22T17:31:50.386Z,12.63
2019-03-22T17:34:21.094Z,8.17
2019-03-22T17:36:51.474Z,12.70
2019-03-22T17:39:21.899Z,9.67
2019-03-22T17:41:52.726Z,7.93
2019-03-22T17:44:34.742Z,8.67
2019-03-22T17:47:05.862Z,10.00
2019-03-22T17:49:36.852Z,7.63
2019-03-22T17:52:07.161Z,6.93
2019-03-22T17:54:37.468Z,8.37
2019-03-22T17:57:07.913Z,7.50
2019-03-22T17:59:38.443Z,8.47
2019-03-22T18:02:08.830Z,9.17
2019-03-22T18:04:50.016Z,6.80
2019-03-22T18:07:14.107Z,8.77
2019-03-22T18:09:45.034Z,9.40
2019-03-22T18:12:15.776Z,10.70
2019-03-22T18:14:54.517Z,7.70
2019-03-22T18:17:38.942Z,7.53
2019-03-22T18:20:10.419Z,9.40
2019-03-22T18:22:40.967Z,9.90
2019-03-22T18:25:12.151Z,7.63
2019-03-22T18:27:43.141Z,8.83
2019-03-22T18:30:16.505Z,8.80
2019-03-22T18:32:47.360Z,10.40
2019-03-22T18:35:18.180Z,8.70
2019-03-22T18:37:49.175Z,12.07
2019-03-22T18:40:19.555Z,9.93
2019-03-22T18:42:52.326Z,10.80
2019-03-22T18:45:22.959Z,10.70
2019-03-22T18:47:53.667Z,14.37
2019-03-22T18:50:24.652Z,15.73
2019-03-22T18:52:55.022Z,11.23
2019-03-22T18:55:26.355Z,13.67
2019-03-22T18:57:56.855Z,13.17
2019-03-22T19:00:27.239Z,13.73
2019-03-22T19:03:04.023Z,20.77
2019-03-22T19:05:34.634Z,18.50
2019-03-22T19:08:05.051Z,16.80
2019-03-22T19:10:35.752Z,15.50
2019-03-22T19:13:07.748Z,16.57
2019-03-22T19:15:39.131Z,16.63
2019-03-22T19:18:09.722Z,22.77
2019-03-22T19:20:40.648Z,17.17
2019-03-22T19:23:11.161Z,15.87
2019-03-22T19:25:47.014Z,24.60
2019-03-22T19:28:17.615Z,18.50
2019-03-22T19:30:47.932Z,18.37
2019-03-22T19:33:46.262Z,19.73
2019-03-22T19:36:16.771Z,24.03
2019-03-22T19:39:21.818Z,21.50
2019-03-22T19:42:15.480Z,21.57
2019-03-22T19:44:46.315Z,21.70
2019-03-22T19:48:16.377Z,24.00
2019-03-22T19:50:48.329Z,26.87
2019-03-22T19:53:23.385Z,26.87
2019-03-22T19:55:54.121Z,26.77
2019-03-22T19:58:24.546Z,32.07
2019-03-22T20:00:55.183Z,30.07
2019-03-22T20:03:26.671Z,31.33
2019-03-22T20:05:57.616Z,41.00
2019-03-22T20:08:43.114Z,37.90
2019-03-22T20:11:17.354Z,40.67
2019-03-22T20:13:48.391Z,33.57
2019-03-22T20:16:19.363Z,35.83
2019-03-22T20:18:49.772Z,33.50
2019-03-22T20:21:20.390Z,31.17
2019-03-22T20:23:53.811Z,31.23
2019-03-22T20:26:29.382Z,36.70
2019-03-22T20:28:59.953Z,35.10
2019-03-22T20:31:30.425Z,36.30
2019-03-22T20:34:24.484Z,36.03
2019-03-22T20:36:55.131Z,37.00
2019-03-22T20:39:25.759Z,31.97
2019-03-22T20:41:56.414Z,31.63
2019-03-22T20:44:34.023Z,29.17
2019-03-22T20:47:02.522Z,31.17
2019-03-22T20:49:33.631Z,31.83
2019-03-22T20:52:04.113Z,31.83
2019-03-22T20:54:35.008Z,32.17
2019-03-22T20:57:05.479Z,29.37
2019-03-22T20:59:36.174Z,29.93
2019-03-22T21:02:07.139Z,29.97
2019-03-22T21:04:37.705Z,31.50
2019-03-22T21:07:09.332Z,32.53
2019-03-22T21:09:42.944Z,31.23
2019-03-22T21:12:13.471Z,27.47
2019-03-22T21:14:44.339Z,28.60
2019-03-22T21:17:16.251Z,25.27
2019-03-22T21:19:46.842Z,28.30
2019-03-22T21:22:18.251Z,26.47
2019-03-22T21:24:48.951Z,24.33
2019-03-22T21:27:19.528Z,30.37
2019-03-22T21:29:50.257Z,24.53
2019-03-22T21:32:20.881Z,29.23
2019-03-22T21:34:51.629Z,25.27
2019-03-22T21:37:23.524Z,27.73
2019-03-22T21:39:53.951Z,30.67
2019-03-22T21:42:24.272Z,25.87
2019-03-22T21:44:54.880Z,25.30
2019-03-22T21:47:25.590Z,28.20
2019-03-22T21:49:56.147Z,27.20
2019-03-22T21:52:26.779Z,30.73
2019-03-22T21:54:57.279Z,28.53
2019-03-22T21:57:27.818Z,25.27
2019-03-22T22:00:02.124Z,25.77
2019-03-22T22:02:40.417Z,25.73
2019-03-22T22:05:11.409Z,29.63
2019-03-22T22:07:41.848Z,30.10
2019-03-22T22:10:12.722Z,28.50
2019-03-22T22:12:43.491Z,31.57
2019-03-22T22:15:16.399Z,24.03
2019-03-22T22:17:46.911Z,27.00
2019-03-22T22:20:17.346Z,24.37
2019-03-22T22:22:47.744Z,27.20
2019-03-22T22:25:18.471Z,25.37
2019-03-22T22:27:49.103Z,27.20
2019-03-22T22:30:19.503Z,27.77
2019-03-22T22:32:50.039Z,31.23
2019-03-22T22:35:20.843Z,28.73
2019-03-22T22:37:51.812Z,31.53
2019-03-22T22:40:22.510Z,32.30
2019-03-22T22:42:53.099Z,33.53
2019-03-22T22:45:23.350Z,33.63
2019-03-22T22:47:54.295Z,27.20
2019-03-22T22:50:25.283Z,29.67
2019-03-22T22:52:55.771Z,35.67
2019-03-22T22:55:26.317Z,30.37
2019-03-22T22:57:56.780Z,27.27
2019-03-22T23:00:28.421Z,25.17
2019-03-22T23:02:59.640Z,22.67
2019-03-22T23:05:30.359Z,29.30
2019-03-22T23:08:01.153Z,27.27
2019-03-22T23:10:31.509Z,26.20
2019-03-22T23:13:01.906Z,32.77
2019-03-22T23:15:32.669Z,24.97
2019-03-22T23:18:03.318Z,26.63
2019-03-22T23:20:33.951Z,33.90
2019-03-22T23:23:04.490Z,23.90
2019-03-22T23:25:35.523Z,26.23
2019-03-22T23:28:06.018Z,27.13
2019-03-22T23:30:36.608Z,27.93
2019-03-22T23:33:07.561Z,29.53
2019-03-22T23:35:38.080Z,33.70
2019-03-22T23:38:08.493Z,23.23
2019-03-22T23:40:39.243Z,25.87
2019-03-22T23:43:10.209Z,22.73
2019-03-22T23:45:40.592Z,30.73
2019-03-22T23:48:11.313Z,25.43
2019-03-22T23:50:41.519Z,25.60
2019-03-22T23:53:11.917Z,26.13
2019-03-22T23:55:42.595Z,22.30
2019-03-22T23:58:13.946Z,20.77
